Elmer, Oklahoma
Current Conditions -  °F | °C
As of 6:58 AM on Friday 24 Oct 2014 (Local Time) from KLTS Reporting Station
Haze Haze  
Wind Chill: 56°   Ceiling: Unl
Heat Index: 56°   Visibility: 6mi
Dew Point: 56°   Wind: 5mph
Humidity: 100%   Direction: 120°ESE
Pressure: 30.07"   Gusts: NA
Location:  34.48°N, 99.35°W
Report Text: KLTS 241158Z AUTO 12004KT 6SM BR CLR 13/13 A3007 RMK AO2 SLP175 T01310131 10153 20130 50000 $
Loading
Personal Weather Stations






























Interactive Weather Map
Tropical Storm Tracking
New forecast layout! Learn more

10-Day Weather Forecast

Advertisements
Track Severe Weather on mobile